createdAt,value
2018-05-21T00:00:39.895Z,16.47
2018-05-21T00:01:40.032Z,16.47
2018-05-21T00:02:40.173Z,16.49
2018-05-21T00:03:40.314Z,16.46
2018-05-21T00:04:40.520Z,16.55
2018-05-21T00:05:41.046Z,16.51
2018-05-21T00:06:40.823Z,16.47
2018-05-21T00:07:40.885Z,16.51
2018-05-21T00:08:41.023Z,16.57
2018-05-21T00:09:41.169Z,16.51
2018-05-21T00:10:41.344Z,16.51
2018-05-21T00:11:41.529Z,16.51
2018-05-21T00:12:41.739Z,16.43
2018-05-21T00:13:41.847Z,16.40
2018-05-21T00:14:41.975Z,16.37
2018-05-21T00:15:41.983Z,16.43
2018-05-21T00:16:42.189Z,16.32
2018-05-21T00:17:42.337Z,16.40
2018-05-21T00:18:42.391Z,16.43
2018-05-21T00:19:42.524Z,16.39
2018-05-21T00:20:42.665Z,16.42
2018-05-21T00:21:42.821Z,16.40
2018-05-21T00:22:43.034Z,16.29
2018-05-21T00:23:43.204Z,16.33
2018-05-21T00:24:43.206Z,16.28
2018-05-21T00:25:43.348Z,16.39
2018-05-21T00:26:43.539Z,16.26
2018-05-21T00:27:43.671Z,16.29
2018-05-21T00:28:43.805Z,16.39
2018-05-21T00:29:43.951Z,16.37
2018-05-21T00:30:44.083Z,16.36
2018-05-21T00:31:44.224Z,16.29
2018-05-21T00:32:44.366Z,16.29
2018-05-21T00:33:44.539Z,16.25
2018-05-21T00:34:44.667Z,16.32
2018-05-21T00:35:44.808Z,16.26
2018-05-21T00:36:44.947Z,16.22
2018-05-21T00:37:45.100Z,16.28
2018-05-21T00:38:45.225Z,16.13
2018-05-21T00:39:45.371Z,16.25
2018-05-21T00:40:45.506Z,16.22
2018-05-21T00:41:45.692Z,16.24
2018-05-21T00:42:45.808Z,16.17
2018-05-21T00:43:45.941Z,16.13
2018-05-21T00:44:46.077Z,16.16
2018-05-21T00:45:46.306Z,16.18
2018-05-21T00:46:46.347Z,16.06
2018-05-21T00:47:46.492Z,16.13
2018-05-21T00:48:46.631Z,16.08
2018-05-21T00:49:46.769Z,16.03
2018-05-21T00:50:46.907Z,16.05
2018-05-21T00:51:47.045Z,16.06
2018-05-21T00:52:47.186Z,15.98
2018-05-21T00:53:47.320Z,16.02
2018-05-21T00:54:47.458Z,15.95
2018-05-21T00:55:47.592Z,15.96
2018-05-21T00:56:47.739Z,15.88
2018-05-21T00:57:47.876Z,15.91
2018-05-21T00:58:48.102Z,15.93
2018-05-21T00:59:48.108Z,15.83
2018-05-21T01:00:48.256Z,15.88
2018-05-21T01:01:48.395Z,15.84
2018-05-21T01:02:48.534Z,15.80
2018-05-21T01:03:48.675Z,15.77
2018-05-21T01:04:48.810Z,15.73
2018-05-21T01:05:48.950Z,15.76
2018-05-21T01:06:49.170Z,15.73
2018-05-21T01:07:49.277Z,15.69
2018-05-21T01:08:49.381Z,15.77
2018-05-21T01:09:49.488Z,15.76
2018-05-21T01:10:49.607Z,15.66
2018-05-21T01:11:49.616Z,15.73
2018-05-21T01:12:49.750Z,15.65
2018-05-21T01:13:49.892Z,15.63
2018-05-21T01:14:50.144Z,15.68
2018-05-21T01:15:50.206Z,15.66
2018-05-21T01:16:50.288Z,15.63
2018-05-21T01:17:50.464Z,15.48
2018-05-21T01:18:50.680Z,15.54
2018-05-21T01:19:50.692Z,15.48
2018-05-21T01:20:50.830Z,15.44
2018-05-21T01:21:51.003Z,15.43
2018-05-21T01:22:51.215Z,15.43
2018-05-21T01:23:51.224Z,15.29
2018-05-21T01:24:51.361Z,15.25
2018-05-21T01:25:51.550Z,15.04
2018-05-21T01:26:51.675Z,15.07
2018-05-21T01:27:51.822Z,15.04
2018-05-21T01:28:51.953Z,15.12
2018-05-21T01:29:52.092Z,15.05
2018-05-21T01:30:52.237Z,15.05
2018-05-21T01:31:52.394Z,15.04
2018-05-21T01:32:52.528Z,14.96
2018-05-21T01:33:52.669Z,15.03
2018-05-21T01:34:52.804Z,14.95
2018-05-21T01:35:52.948Z,14.95
2018-05-21T01:36:53.151Z,15.03
2018-05-21T01:37:53.158Z,14.89
2018-05-21T01:38:53.365Z,15.03
2018-05-21T01:39:53.498Z,14.96
2018-05-21T01:40:53.510Z,14.92
2018-05-21T01:41:53.700Z,14.97
2018-05-21T01:42:53.914Z,15.01
2018-05-21T01:43:54.047Z,14.95
2018-05-21T01:44:54.062Z,15.01
2018-05-21T01:45:54.194Z,15.01
2018-05-21T01:46:54.344Z,14.89
2018-05-21T01:47:54.499Z,14.89
2018-05-21T01:48:54.666Z,14.87
2018-05-21T01:49:54.879Z,14.96
2018-05-21T01:50:54.989Z,14.97
2018-05-21T01:51:55.101Z,14.83
2018-05-21T01:52:55.106Z,14.90
2018-05-21T01:53:55.247Z,14.86
2018-05-21T01:54:55.408Z,14.79
2018-05-21T01:55:55.541Z,14.83
2018-05-21T01:56:55.680Z,14.79
2018-05-21T01:57:55.815Z,14.85
2018-05-21T01:58:55.967Z,14.85
2018-05-21T01:59:56.093Z,14.83
2018-05-21T02:00:56.234Z,14.82
2018-05-21T02:01:56.454Z,14.90
2018-05-21T02:02:56.459Z,14.82
2018-05-21T02:03:56.590Z,14.85
2018-05-21T02:04:58.536Z,14.87
2018-05-21T02:05:56.918Z,14.83
2018-05-21T02:06:57.173Z,14.90
2018-05-21T02:07:57.252Z,14.89
2018-05-21T02:08:57.359Z,14.92
2018-05-21T02:09:57.447Z,14.83
2018-05-21T02:10:57.533Z,14.89
2018-05-21T02:11:57.669Z,14.86
2018-05-21T02:12:57.800Z,14.90
2018-05-21T02:13:57.967Z,14.85
2018-05-21T02:14:58.092Z,14.89
2018-05-21T02:15:58.227Z,14.78
2018-05-21T02:16:58.365Z,14.79
2018-05-21T02:17:58.530Z,14.74
2018-05-21T02:18:58.757Z,14.71
2018-05-21T02:19:58.933Z,14.69
2018-05-21T02:20:58.992Z,14.69
2018-05-21T02:21:58.997Z,14.55
2018-05-21T02:22:59.136Z,14.64
2018-05-21T02:23:59.270Z,14.49
2018-05-21T02:24:59.404Z,14.55
2018-05-21T02:25:59.542Z,14.51
2018-05-21T02:26:59.763Z,14.52
2018-05-21T02:27:59.824Z,14.55
2018-05-21T02:28:59.963Z,14.51
2018-05-21T02:30:00.103Z,14.52
2018-05-21T02:31:00.237Z,14.52
2018-05-21T02:32:00.376Z,14.55
2018-05-21T02:33:00.511Z,14.53
2018-05-21T02:34:00.656Z,14.53
2018-05-21T02:35:00.781Z,14.48
2018-05-21T02:36:00.917Z,14.49
2018-05-21T02:37:01.061Z,14.41
2018-05-21T02:38:01.193Z,14.55
2018-05-21T02:39:01.345Z,14.51
2018-05-21T02:40:01.474Z,14.52
2018-05-21T02:41:01.608Z,14.46
2018-05-21T02:42:01.747Z,14.41
2018-05-21T02:43:01.885Z,14.46
2018-05-21T02:44:02.022Z,14.49
2018-05-21T02:45:02.165Z,14.52
2018-05-21T02:46:02.302Z,14.45
2018-05-21T02:47:02.435Z,14.38
2018-05-21T02:48:02.573Z,14.31
2018-05-21T02:49:02.711Z,14.26
2018-05-21T02:50:02.845Z,14.27
2018-05-21T02:51:02.979Z,14.23
2018-05-21T02:52:03.119Z,14.23
2018-05-21T02:53:03.260Z,14.27
2018-05-21T02:54:03.397Z,14.16
2018-05-21T02:55:03.542Z,14.19
2018-05-21T02:56:03.676Z,14.19
2018-05-21T02:57:03.820Z,14.18
2018-05-21T02:58:03.948Z,14.15
2018-05-21T02:59:04.089Z,14.15
2018-05-21T03:00:04.302Z,14.18
2018-05-21T03:01:04.312Z,13.98
2018-05-21T03:02:04.447Z,13.98
2018-05-21T03:03:04.593Z,14.04
2018-05-21T03:04:04.726Z,14.18
2018-05-21T03:05:04.874Z,14.15
2018-05-21T03:06:05.111Z,14.13
2018-05-21T03:07:05.236Z,14.16
2018-05-21T03:08:05.337Z,14.05
2018-05-21T03:09:05.342Z,14.19
2018-05-21T03:10:05.565Z,14.19
2018-05-21T03:11:05.657Z,14.21
2018-05-21T03:12:05.764Z,14.19
2018-05-21T03:13:05.888Z,14.11
2018-05-21T03:14:05.989Z,14.31
2018-05-21T03:15:06.095Z,14.13
2018-05-21T03:16:06.103Z,14.13
2018-05-21T03:17:06.239Z,14.13
2018-05-21T03:18:06.425Z,14.16
2018-05-21T03:19:06.517Z,14.23
2018-05-21T03:20:06.741Z,14.27
2018-05-21T03:21:06.851Z,14.26
2018-05-21T03:22:06.907Z,14.21
2018-05-21T03:23:07.050Z,14.27
2018-05-21T03:24:07.180Z,14.13
2018-05-21T03:25:07.316Z,14.26
2018-05-21T03:26:07.487Z,14.09
2018-05-21T03:27:07.608Z,14.11
2018-05-21T03:28:07.746Z,13.86
2018-05-21T03:29:07.881Z,13.96
2018-05-21T03:30:08.048Z,13.96
2018-05-21T03:31:08.232Z,13.98
2018-05-21T03:32:08.381Z,13.91
2018-05-21T03:33:08.509Z,13.91
2018-05-21T03:34:08.677Z,13.85
2018-05-21T03:35:08.814Z,13.90
2018-05-21T03:36:08.951Z,13.88
2018-05-21T03:37:09.105Z,14.00
2018-05-21T03:38:09.240Z,13.94
2018-05-21T03:39:09.382Z,13.93
2018-05-21T03:40:09.528Z,13.86
2018-05-21T03:41:09.649Z,13.96
2018-05-21T03:42:09.786Z,13.91
2018-05-21T03:43:09.948Z,13.85
2018-05-21T03:44:10.075Z,13.97
2018-05-21T03:45:10.208Z,13.97
2018-05-21T03:46:10.364Z,13.93
2018-05-21T03:47:10.507Z,13.97
2018-05-21T03:48:10.641Z,13.91
2018-05-21T03:49:10.821Z,13.93
2018-05-21T03:50:10.963Z,13.94
2018-05-21T03:51:11.117Z,14.03
2018-05-21T03:52:11.241Z,13.98
2018-05-21T03:53:11.382Z,13.96
2018-05-21T03:54:11.560Z,14.01
2018-05-21T03:55:11.668Z,13.96
2018-05-21T03:56:11.806Z,13.94
2018-05-21T03:57:11.945Z,14.03
2018-05-21T03:58:12.081Z,14.05
2018-05-21T03:59:12.214Z,14.08
2018-05-21T04:00:12.348Z,14.04
2018-05-21T04:01:12.484Z,14.00
2018-05-21T04:02:12.624Z,13.94
2018-05-21T04:03:12.753Z,13.98
2018-05-21T04:04:12.891Z,14.08
2018-05-21T04:05:13.037Z,14.15
2018-05-21T04:06:13.166Z,14.12
2018-05-21T04:07:13.311Z,14.00
2018-05-21T04:08:13.514Z,14.18
2018-05-21T04:09:13.621Z,14.13
2018-05-21T04:10:13.636Z,14.12
2018-05-21T04:11:13.840Z,14.08
2018-05-21T04:12:13.952Z,14.09
2018-05-21T04:13:14.057Z,13.94
2018-05-21T04:14:14.165Z,14.13
2018-05-21T04:15:14.179Z,14.03
2018-05-21T04:16:14.387Z,14.09
2018-05-21T04:17:14.496Z,14.12
2018-05-21T04:18:14.606Z,14.03
2018-05-21T04:19:14.712Z,14.08
2018-05-21T04:20:14.822Z,14.18
2018-05-21T04:21:14.930Z,14.13
2018-05-21T04:22:15.038Z,13.97
2018-05-21T04:23:15.056Z,14.08
2018-05-21T04:24:15.257Z,14.03
2018-05-21T04:25:15.271Z,14.11
2018-05-21T04:26:15.480Z,14.11
2018-05-21T04:27:15.487Z,14.13
2018-05-21T04:28:15.625Z,14.22
2018-05-21T04:29:15.805Z,14.09
2018-05-21T04:30:16.013Z,13.94
2018-05-21T04:31:16.135Z,13.97
2018-05-21T04:32:16.235Z,14.04
2018-05-21T04:33:16.345Z,14.15
2018-05-21T04:34:16.357Z,14.15
2018-05-21T04:35:16.494Z,14.18
2018-05-21T04:36:16.746Z,14.21
2018-05-21T04:37:17.403Z,14.27
2018-05-21T04:38:16.935Z,14.30
2018-05-21T04:39:17.067Z,14.26
2018-05-21T04:40:17.304Z,14.30
2018-05-21T04:41:17.377Z,14.30
2018-05-21T04:42:17.483Z,14.37
2018-05-21T04:43:17.635Z,14.45
2018-05-21T04:44:17.765Z,14.46
2018-05-21T04:45:17.982Z,14.48
2018-05-21T04:46:17.996Z,14.49
2018-05-21T04:47:18.146Z,14.56
2018-05-21T04:48:18.278Z,14.55
2018-05-21T04:49:18.413Z,14.59
2018-05-21T04:50:18.552Z,14.64
2018-05-21T04:51:18.745Z,14.58
2018-05-21T04:52:18.880Z,14.56
2018-05-21T04:53:19.017Z,14.49
2018-05-21T04:54:19.189Z,14.21
2018-05-21T04:55:19.324Z,13.98
2018-05-21T04:56:19.468Z,14.04
2018-05-21T04:57:19.604Z,13.98
2018-05-21T04:58:19.763Z,14.00
2018-05-21T04:59:19.999Z,13.96
2018-05-21T05:00:20.008Z,14.12
2018-05-21T05:01:20.223Z,14.03
2018-05-21T05:02:20.265Z,14.13
2018-05-21T05:03:20.533Z,14.13
2018-05-21T05:04:20.558Z,14.27
2018-05-21T05:05:20.756Z,14.13
2018-05-21T05:06:21.685Z,14.27
2018-05-21T05:07:20.923Z,14.16
2018-05-21T05:08:21.016Z,14.34
2018-05-21T05:09:21.192Z,14.36
2018-05-21T05:10:21.328Z,14.41
2018-05-21T05:11:21.485Z,14.52
2018-05-21T05:12:21.723Z,14.49
2018-05-21T05:13:21.833Z,14.51
2018-05-21T05:14:21.969Z,14.58
2018-05-21T05:15:22.048Z,14.48
2018-05-21T05:16:22.159Z,14.64
2018-05-21T05:17:22.185Z,14.63
2018-05-21T05:18:22.326Z,14.53
2018-05-21T05:19:22.460Z,14.58
2018-05-21T05:20:22.699Z,14.64
2018-05-21T05:21:22.710Z,14.64
2018-05-21T05:22:22.879Z,14.69
2018-05-21T05:23:23.017Z,14.71
2018-05-21T05:24:23.236Z,14.85
2018-05-21T05:25:23.360Z,14.92
2018-05-21T05:26:23.373Z,14.96
2018-05-21T05:27:23.565Z,14.99
2018-05-21T05:28:23.799Z,15.04
2018-05-21T05:29:23.812Z,15.04
2018-05-21T05:30:23.959Z,15.03
2018-05-21T05:31:24.206Z,15.17
2018-05-21T05:32:24.228Z,15.25
2018-05-21T05:33:24.430Z,15.26
2018-05-21T05:34:24.533Z,15.35
2018-05-21T05:35:24.538Z,15.29
2018-05-21T05:36:24.800Z,15.36
2018-05-21T05:37:24.832Z,15.41
2018-05-21T05:38:25.070Z,15.44
2018-05-21T05:39:25.084Z,15.44
2018-05-21T05:40:25.306Z,15.54
2018-05-21T05:41:25.397Z,15.62
2018-05-21T05:42:25.510Z,15.66
2018-05-21T05:43:25.612Z,15.59
2018-05-21T05:44:25.717Z,15.60
2018-05-21T05:45:25.834Z,15.66
2018-05-21T05:46:25.855Z,15.63
2018-05-21T05:47:25.990Z,15.77
2018-05-21T05:48:26.157Z,15.76
2018-05-21T05:49:26.372Z,15.90
2018-05-21T05:50:26.482Z,15.93
2018-05-21T05:51:26.528Z,15.90
2018-05-21T05:52:26.688Z,16.00
2018-05-21T05:53:26.917Z,16.02
2018-05-21T05:54:26.991Z,16.06
2018-05-21T05:55:27.032Z,16.09
2018-05-21T05:56:27.241Z,16.08
2018-05-21T05:57:27.249Z,16.22
2018-05-21T05:58:27.463Z,16.25
2018-05-21T05:59:27.471Z,16.28
2018-05-21T06:00:27.611Z,16.26
2018-05-21T06:01:27.782Z,16.28
2018-05-21T06:02:27.993Z,16.28
2018-05-21T06:03:28.007Z,16.22
2018-05-21T06:04:28.213Z,16.34
2018-05-21T06:05:28.325Z,16.29
2018-05-21T06:06:28.435Z,16.40
2018-05-21T06:07:28.449Z,16.22
2018-05-21T06:08:28.695Z,16.39
2018-05-21T06:09:28.696Z,16.40
2018-05-21T06:10:28.837Z,16.37
2018-05-21T06:11:29.079Z,16.46
2018-05-21T06:12:29.131Z,16.43
2018-05-21T06:13:29.267Z,16.54
2018-05-21T06:14:29.514Z,16.54
2018-05-21T06:15:29.626Z,16.44
2018-05-21T06:16:29.726Z,16.64
2018-05-21T06:17:29.738Z,16.59
2018-05-21T06:18:29.881Z,16.64
2018-05-21T06:19:30.035Z,16.58
2018-05-21T06:20:30.266Z,16.70
2018-05-21T06:21:30.276Z,16.65
2018-05-21T06:22:30.428Z,16.59
2018-05-21T06:23:30.585Z,16.73
2018-05-21T06:24:30.724Z,16.87
2018-05-21T06:25:30.866Z,16.72
2018-05-21T06:26:31.004Z,16.79
2018-05-21T06:27:31.167Z,16.82
2018-05-21T06:28:31.300Z,16.72
2018-05-21T06:29:31.438Z,16.84
2018-05-21T06:30:31.573Z,16.88
2018-05-21T06:31:31.730Z,16.83
2018-05-21T06:32:31.866Z,16.91
2018-05-21T06:33:32.000Z,16.97
2018-05-21T06:34:32.797Z,17.04
2018-05-21T06:35:32.334Z,16.97
2018-05-21T06:36:32.482Z,17.01
2018-05-21T06:37:32.634Z,16.99
2018-05-21T06:38:32.799Z,17.04
2018-05-21T06:39:32.949Z,17.06
2018-05-21T06:40:33.097Z,17.16
2018-05-21T06:41:33.235Z,17.20
2018-05-21T06:42:33.393Z,17.02
2018-05-21T06:43:33.531Z,17.07
2018-05-21T06:44:33.671Z,17.22
2018-05-21T06:45:33.919Z,17.19
2018-05-21T06:46:33.959Z,17.16
2018-05-21T06:47:34.092Z,17.19
2018-05-21T06:48:34.229Z,17.24
2018-05-21T06:49:34.380Z,17.20
2018-05-21T06:50:34.540Z,17.25
2018-05-21T06:51:34.676Z,17.28
2018-05-21T06:52:35.696Z,17.30
2018-05-21T06:53:34.918Z,17.32
2018-05-21T06:54:35.050Z,17.39
2018-05-21T06:55:35.196Z,17.37
2018-05-21T06:56:35.339Z,17.49
2018-05-21T06:57:35.507Z,17.38
2018-05-21T06:58:35.643Z,17.35
2018-05-21T06:59:35.778Z,17.47
2018-05-21T07:00:35.960Z,17.56
2018-05-21T07:01:36.085Z,17.56
2018-05-21T07:02:36.220Z,17.54
2018-05-21T07:03:36.389Z,17.56
2018-05-21T07:04:36.533Z,17.66
2018-05-21T07:05:36.713Z,17.56
2018-05-21T07:06:36.859Z,17.66
2018-05-21T07:07:37.001Z,17.68
2018-05-21T07:08:37.158Z,17.84
2018-05-21T07:09:37.296Z,17.79
2018-05-21T07:10:37.421Z,17.79
2018-05-21T07:11:37.581Z,17.81
2018-05-21T07:12:37.783Z,17.87
2018-05-21T07:13:37.795Z,17.84
2018-05-21T07:14:37.933Z,17.91
2018-05-21T07:15:38.071Z,18.01
2018-05-21T07:16:38.217Z,17.93
2018-05-21T07:17:38.354Z,18.08
2018-05-21T07:18:38.493Z,17.97
2018-05-21T07:19:38.636Z,18.02
2018-05-21T07:20:38.776Z,17.99
2018-05-21T07:21:38.911Z,18.05
2018-05-21T07:22:39.054Z,18.01
2018-05-21T07:23:39.186Z,18.09
2018-05-21T07:24:39.347Z,18.06
2018-05-21T07:25:39.481Z,18.03
2018-05-21T07:26:39.619Z,18.17
2018-05-21T07:27:39.760Z,18.13
2018-05-21T07:28:39.896Z,18.12
2018-05-21T07:29:40.034Z,18.13
2018-05-21T07:30:40.175Z,18.15
2018-05-21T07:31:40.316Z,18.24
2018-05-21T07:32:40.463Z,18.30
2018-05-21T07:33:40.647Z,18.28
2018-05-21T07:34:40.780Z,18.28
2018-05-21T07:35:40.922Z,18.33
2018-05-21T07:36:41.054Z,18.38
2018-05-21T07:37:41.192Z,18.34
2018-05-21T07:38:41.332Z,18.39
2018-05-21T07:39:41.469Z,18.43
2018-05-21T07:40:41.635Z,18.41
2018-05-21T07:41:41.766Z,18.42
2018-05-21T07:42:41.906Z,18.49
2018-05-21T07:43:42.048Z,18.46
2018-05-21T07:44:42.263Z,18.46
2018-05-21T07:45:42.401Z,18.54
2018-05-21T07:46:42.534Z,18.51
2018-05-21T07:47:42.671Z,18.58
2018-05-21T07:48:42.804Z,18.63
2018-05-21T07:49:42.942Z,18.63
2018-05-21T07:50:43.083Z,18.61
2018-05-21T07:51:43.239Z,18.67
2018-05-21T07:52:43.358Z,18.74
2018-05-21T07:53:43.495Z,18.75
2018-05-21T07:54:43.645Z,18.75
2018-05-21T07:55:43.785Z,18.76
2018-05-21T07:56:43.932Z,18.74
2018-05-21T07:57:44.064Z,18.78
2018-05-21T08:00:16.535Z,18.91
2018-05-21T08:01:16.691Z,18.82
2018-05-21T08:02:16.817Z,18.98
2018-05-21T08:03:16.961Z,18.96
2018-05-21T08:04:17.098Z,19.01
2018-05-21T08:05:17.235Z,19.01
2018-05-21T08:06:17.374Z,19.08
2018-05-21T08:07:17.532Z,19.04
2018-05-21T08:08:17.671Z,19.08
2018-05-21T08:09:17.818Z,19.12
2018-05-21T08:10:17.959Z,19.13
2018-05-21T08:11:18.250Z,19.16
2018-05-21T08:12:18.245Z,19.22
2018-05-21T08:13:18.382Z,19.23
2018-05-21T08:14:18.513Z,19.17
2018-05-21T08:15:18.672Z,19.32
2018-05-21T08:16:18.802Z,19.31
2018-05-21T08:17:18.943Z,19.31
2018-05-21T08:18:19.090Z,19.39
2018-05-21T08:19:19.230Z,19.38
2018-05-21T08:20:19.383Z,19.37
2018-05-21T08:21:19.503Z,19.42
2018-05-21T08:22:19.751Z,19.41
2018-05-21T08:23:19.791Z,19.50
2018-05-21T08:24:19.930Z,19.47
2018-05-21T08:25:20.069Z,19.41
2018-05-21T08:26:20.222Z,19.47
2018-05-21T08:27:20.358Z,19.52
2018-05-21T08:28:20.499Z,19.49
2018-05-21T08:29:20.652Z,19.57
2018-05-21T08:30:20.785Z,19.62
2018-05-21T08:31:20.928Z,19.59
2018-05-21T08:32:21.063Z,19.64
2018-05-21T08:33:21.199Z,19.71
2018-05-21T08:34:21.340Z,19.74
2018-05-21T08:35:21.475Z,19.81
2018-05-21T08:36:21.614Z,19.79
2018-05-21T08:37:21.754Z,19.82
2018-05-21T08:38:21.890Z,19.92
2018-05-21T08:39:22.032Z,19.90
2018-05-21T08:40:22.185Z,19.96
2018-05-21T08:41:22.318Z,19.89
2018-05-21T08:42:22.474Z,20.00
2018-05-21T08:43:22.615Z,19.97
2018-05-21T08:44:22.752Z,19.99
2018-05-21T08:45:22.924Z,19.97
2018-05-21T08:46:23.066Z,19.97
2018-05-21T08:47:23.209Z,20.07
2018-05-21T08:48:23.400Z,20.05
2018-05-21T08:49:23.475Z,20.02
2018-05-21T08:50:23.619Z,20.07
2018-05-21T08:51:23.754Z,20.04
2018-05-21T08:52:23.994Z,20.22
2018-05-21T08:53:24.112Z,20.17
2018-05-21T08:54:24.264Z,20.17
2018-05-21T08:55:24.401Z,20.19
2018-05-21T08:56:24.524Z,20.18
2018-05-21T08:57:24.667Z,20.19
2018-05-21T08:58:24.811Z,20.27
2018-05-21T08:59:24.948Z,20.30
2018-05-21T09:00:25.123Z,20.33
2018-05-21T09:01:25.241Z,20.36
2018-05-21T09:02:25.372Z,20.33
2018-05-21T09:03:25.515Z,20.44
2018-05-21T09:04:25.662Z,20.46
2018-05-21T09:05:25.806Z,20.39
2018-05-21T09:06:25.961Z,20.44
2018-05-21T09:07:26.109Z,20.48
2018-05-21T09:08:26.268Z,20.42
2018-05-21T09:09:26.412Z,20.49
2018-05-21T09:10:26.556Z,20.44
2018-05-21T09:11:26.694Z,20.55
2018-05-21T09:12:26.961Z,20.42
2018-05-21T09:13:27.018Z,20.56
2018-05-21T09:14:27.162Z,20.60
2018-05-21T09:15:27.298Z,20.65
2018-05-21T09:16:27.485Z,20.71
2018-05-21T09:17:27.567Z,20.75
2018-05-21T09:18:27.716Z,20.67
2018-05-21T09:19:27.872Z,20.68
2018-05-21T09:20:27.999Z,20.67
2018-05-21T09:21:28.166Z,20.79
2018-05-21T09:22:28.310Z,20.80
2018-05-21T09:23:28.450Z,20.85
2018-05-21T09:24:28.607Z,20.90
2018-05-21T09:25:28.743Z,20.90
2018-05-21T09:26:28.879Z,20.92
2018-05-21T09:27:29.040Z,20.95
2018-05-21T09:28:29.163Z,20.95
2018-05-21T09:29:29.309Z,20.93
2018-05-21T09:30:29.453Z,21.01
2018-05-21T09:31:29.590Z,20.98
2018-05-21T09:32:29.743Z,20.93
2018-05-21T09:33:29.867Z,20.98
2018-05-21T09:34:30.014Z,21.10
2018-05-21T09:35:30.153Z,21.18
2018-05-21T09:36:30.292Z,21.11
2018-05-21T09:37:30.443Z,21.11
2018-05-21T09:38:30.579Z,21.22
2018-05-21T09:39:30.723Z,21.25
2018-05-21T09:40:30.864Z,21.26
2018-05-21T09:41:31.008Z,21.29
2018-05-21T09:42:31.152Z,21.29
2018-05-21T09:43:31.297Z,21.29
2018-05-21T09:44:31.432Z,21.38
2018-05-21T09:45:31.571Z,21.34
2018-05-21T09:46:31.710Z,21.41
2018-05-21T09:47:31.850Z,21.44
2018-05-21T09:48:31.993Z,21.29
2018-05-21T09:49:32.127Z,21.34
2018-05-21T09:50:32.266Z,21.44
2018-05-21T09:51:32.411Z,21.45
2018-05-21T09:52:32.551Z,21.47
2018-05-21T09:53:32.702Z,21.48
2018-05-21T09:54:32.838Z,21.45
2018-05-21T09:55:32.982Z,21.44
2018-05-21T09:56:33.133Z,21.53
2018-05-21T09:57:33.271Z,21.63
2018-05-21T09:58:33.410Z,21.59
2018-05-21T09:59:33.560Z,21.67
2018-05-21T10:00:33.766Z,21.71
2018-05-21T10:01:33.840Z,21.71
2018-05-21T10:02:33.977Z,21.69
2018-05-21T10:03:34.127Z,21.74
2018-05-21T10:04:34.257Z,21.80
2018-05-21T10:05:34.397Z,21.67
2018-05-21T10:06:34.539Z,21.81
2018-05-21T10:07:34.724Z,21.78
2018-05-21T10:08:34.830Z,21.81
2018-05-21T10:09:35.000Z,21.90
2018-05-21T10:10:35.147Z,21.91
2018-05-21T10:11:35.286Z,21.94
2018-05-21T10:12:35.488Z,21.97
2018-05-21T10:13:35.567Z,21.96
2018-05-21T10:14:35.715Z,21.93
2018-05-21T10:15:35.852Z,22.03
2018-05-21T10:16:35.991Z,22.01
2018-05-21T10:17:36.131Z,22.07
2018-05-21T10:18:36.290Z,21.98
2018-05-21T10:19:36.438Z,22.12
2018-05-21T10:20:37.281Z,22.09
2018-05-21T10:21:36.774Z,22.09
2018-05-21T10:22:36.855Z,22.16
2018-05-21T10:23:37.007Z,22.09
2018-05-21T10:24:37.159Z,22.15
2018-05-21T10:25:37.309Z,22.31
2018-05-21T10:26:37.443Z,22.28
2018-05-21T10:27:37.587Z,22.22
2018-05-21T10:28:37.727Z,22.23
2018-05-21T10:29:37.891Z,22.41
2018-05-21T10:30:38.037Z,22.40
2018-05-21T10:31:38.171Z,22.27
2018-05-21T10:32:38.365Z,22.30
2018-05-21T10:33:38.517Z,22.23
2018-05-21T10:34:38.648Z,22.27
2018-05-21T10:35:38.804Z,22.34
2018-05-21T10:36:38.944Z,22.27
2018-05-21T10:37:39.083Z,22.31
2018-05-21T10:38:39.227Z,22.23
2018-05-21T10:39:39.366Z,22.18
2018-05-21T10:40:39.507Z,22.33
2018-05-21T10:41:39.652Z,22.44
2018-05-21T10:42:39.796Z,22.40
2018-05-21T10:43:39.967Z,22.56
2018-05-21T10:44:40.081Z,22.59
2018-05-21T10:45:40.221Z,22.61
2018-05-21T10:46:40.366Z,22.66
2018-05-21T10:47:40.520Z,22.55
2018-05-21T10:48:40.661Z,22.66
2018-05-21T10:49:40.804Z,22.71
2018-05-21T10:50:40.950Z,22.76
2018-05-21T10:51:41.093Z,22.74
2018-05-21T10:52:41.233Z,22.76
2018-05-21T10:53:41.378Z,22.80
2018-05-21T10:54:41.523Z,22.83
2018-05-21T10:55:41.675Z,22.95
2018-05-21T10:56:41.818Z,23.03
2018-05-21T10:57:42.040Z,22.96
2018-05-21T10:58:42.115Z,23.06
2018-05-21T10:59:42.344Z,23.01
2018-05-21T11:00:42.362Z,23.10
2018-05-21T11:01:42.530Z,22.99
2018-05-21T11:02:42.692Z,22.92
2018-05-21T11:03:42.859Z,22.99
2018-05-21T11:04:43.004Z,22.99
2018-05-21T11:05:43.138Z,22.98
2018-05-21T11:06:43.286Z,22.98
2018-05-21T11:07:43.423Z,22.92
2018-05-21T11:08:43.586Z,22.98
2018-05-21T11:09:43.755Z,22.96
2018-05-21T11:10:43.898Z,22.98
2018-05-21T11:11:44.046Z,23.08
2018-05-21T11:12:44.247Z,22.99
2018-05-21T11:13:44.384Z,23.10
2018-05-21T11:14:44.564Z,23.13
2018-05-21T11:15:44.691Z,23.15
2018-05-21T11:16:44.833Z,23.13
2018-05-21T11:17:44.981Z,23.11
2018-05-21T11:18:45.148Z,23.14
2018-05-21T11:19:45.304Z,23.13
2018-05-21T11:20:45.444Z,23.18
2018-05-21T11:21:45.594Z,23.13
2018-05-21T11:22:45.726Z,23.21
2018-05-21T11:23:45.874Z,23.28
2018-05-21T11:24:46.070Z,23.23
2018-05-21T11:25:46.205Z,23.23
2018-05-21T11:26:46.484Z,23.29
2018-05-21T11:27:46.432Z,23.41
2018-05-21T11:28:46.568Z,23.44
2018-05-21T11:29:46.764Z,23.51
2018-05-21T11:30:46.927Z,23.54
2018-05-21T11:31:47.125Z,23.60
2018-05-21T11:32:47.276Z,23.55
2018-05-21T11:33:47.310Z,23.52
2018-05-21T11:34:47.462Z,23.59
2018-05-21T11:35:47.590Z,23.56
2018-05-21T11:36:47.726Z,23.54
2018-05-21T11:37:47.870Z,23.59
2018-05-21T11:38:48.007Z,23.59
2018-05-21T11:39:48.155Z,23.60
2018-05-21T11:40:48.305Z,23.63
2018-05-21T11:41:48.502Z,23.78
2018-05-21T11:42:48.643Z,23.64
2018-05-21T11:43:48.791Z,23.63
2018-05-21T11:44:48.956Z,23.78
2018-05-21T11:45:49.098Z,23.73
2018-05-21T11:46:49.265Z,23.73
2018-05-21T11:47:49.405Z,23.70
2018-05-21T11:48:49.547Z,23.84
2018-05-21T11:49:49.721Z,23.86
2018-05-21T11:50:49.858Z,23.84
2018-05-21T11:51:50.002Z,23.84
2018-05-21T11:52:50.144Z,23.98
2018-05-21T11:53:50.305Z,23.97
2018-05-21T11:54:50.439Z,23.97
2018-05-21T11:55:50.586Z,24.01
2018-05-21T11:56:50.732Z,23.94
2018-05-21T11:57:50.881Z,24.06
2018-05-21T11:58:51.025Z,24.08
2018-05-21T11:59:51.175Z,24.08
2018-05-21T12:00:51.318Z,24.04
2018-05-21T12:01:51.489Z,24.18
2018-05-21T12:02:51.630Z,24.08
2018-05-21T12:03:51.777Z,24.15
2018-05-21T12:04:51.919Z,24.26
2018-05-21T12:05:52.081Z,24.26
2018-05-21T12:06:52.227Z,24.21
2018-05-21T12:07:52.369Z,24.33
2018-05-21T12:08:52.519Z,24.37
2018-05-21T12:09:52.664Z,24.37
2018-05-21T12:10:52.807Z,24.38
2018-05-21T12:11:52.951Z,24.41
2018-05-21T12:12:53.095Z,24.47
2018-05-21T12:13:53.238Z,24.37
2018-05-21T12:14:53.394Z,24.45
2018-05-21T12:15:53.525Z,24.43
2018-05-21T12:16:53.675Z,24.44
2018-05-21T12:17:53.813Z,24.55
2018-05-21T12:18:53.953Z,24.59
2018-05-21T12:19:54.104Z,24.62
2018-05-21T12:20:54.242Z,24.63
2018-05-21T12:21:54.388Z,24.55
2018-05-21T12:22:54.554Z,24.62
2018-05-21T12:23:54.719Z,24.56
2018-05-21T12:24:54.850Z,24.62
2018-05-21T12:25:55.000Z,24.59
2018-05-21T12:26:55.143Z,24.59
2018-05-21T12:27:55.316Z,24.59
2018-05-21T12:28:55.454Z,24.66
2018-05-21T12:29:55.593Z,24.60
2018-05-21T12:30:55.775Z,24.70
2018-05-21T12:31:55.954Z,24.85
2018-05-21T12:32:56.085Z,24.75
2018-05-21T12:33:56.225Z,24.81
2018-05-21T12:34:56.374Z,24.86
2018-05-21T12:35:56.536Z,24.86
2018-05-21T12:36:56.680Z,24.90
2018-05-21T12:37:56.832Z,24.91
2018-05-21T12:38:56.977Z,24.96
2018-05-21T12:39:57.162Z,24.99
2018-05-21T12:40:57.328Z,24.97
2018-05-21T12:41:57.473Z,24.94
2018-05-21T12:42:57.621Z,24.86
2018-05-21T12:43:57.760Z,25.00
2018-05-21T12:44:57.906Z,25.00
2018-05-21T12:45:58.052Z,25.06
2018-05-21T12:46:58.290Z,25.06
2018-05-21T12:47:58.347Z,25.04
2018-05-21T12:48:58.481Z,25.11
2018-05-21T12:49:58.638Z,25.15
2018-05-21T12:50:58.783Z,25.23
2018-05-21T12:51:58.932Z,25.03
2018-05-21T12:52:59.077Z,25.08
2018-05-21T12:53:59.225Z,25.08
2018-05-21T12:54:59.377Z,25.01
2018-05-21T12:55:59.515Z,24.99